createdAt,value
2022-11-01T00:02:01.345Z,18.83
2022-11-01T00:04:28.281Z,16.00
2022-11-01T00:06:55.183Z,18.50
2022-11-01T00:09:22.171Z,15.20
2022-11-01T00:11:49.037Z,16.00
2022-11-01T00:14:17.749Z,21.17
2022-11-01T00:16:44.750Z,14.43
2022-11-01T00:19:11.900Z,17.00
2022-11-01T00:21:38.791Z,15.25
2022-11-01T00:24:06.002Z,16.20
2022-11-01T00:26:32.890Z,17.98
2022-11-01T00:28:59.986Z,16.65
2022-11-01T00:31:27.024Z,16.80
2022-11-01T00:33:53.860Z,23.55
2022-11-01T00:36:20.870Z,16.90
2022-11-01T00:38:52.216Z,18.02
2022-11-01T00:41:21.052Z,16.23
2022-11-01T00:43:48.874Z,18.23
2022-11-01T00:46:16.389Z,18.67
2022-11-01T00:48:43.248Z,16.92
2022-11-01T00:51:10.277Z,20.50
2022-11-01T00:53:37.218Z,18.55
2022-11-01T00:56:06.214Z,20.58
2022-11-01T00:58:33.291Z,17.02
2022-11-01T01:01:00.643Z,20.25
2022-11-01T01:03:27.702Z,20.10
2022-11-01T01:05:56.145Z,20.52
2022-11-01T01:08:23.909Z,17.90
2022-11-01T01:10:51.417Z,19.23
2022-11-01T01:13:18.621Z,19.70
2022-11-01T01:15:45.736Z,85.90
2022-11-01T01:18:13.320Z,54.03
2022-11-01T01:20:40.394Z,22.58
2022-11-01T01:23:07.420Z,26.75
2022-11-01T01:25:34.817Z,23.08
2022-11-01T01:28:02.599Z,20.15
2022-11-01T01:30:29.645Z,21.23
2022-11-01T01:32:56.485Z,17.73
2022-11-01T01:35:23.357Z,17.70
2022-11-01T01:37:50.202Z,22.25
2022-11-01T01:40:17.106Z,22.23
2022-11-01T01:42:44.114Z,16.23
2022-11-01T01:45:23.587Z,19.27
2022-11-01T01:47:53.114Z,19.88
2022-11-01T01:50:28.679Z,19.45
2022-11-01T01:53:01.404Z,20.17
2022-11-01T01:55:36.551Z,16.73
2022-11-01T01:58:04.261Z,18.90
2022-11-01T02:00:31.282Z,20.60
2022-11-01T02:02:58.483Z,20.52
2022-11-01T02:05:41.285Z,34.75
2022-11-01T02:08:08.294Z,25.92
2022-11-01T02:10:35.689Z,27.02
2022-11-01T02:13:02.612Z,17.52
2022-11-01T02:15:40.493Z,21.92
2022-11-01T02:19:01.406Z,17.63
2022-11-01T02:22:03.608Z,17.52
2022-11-01T02:24:49.465Z,23.92
2022-11-01T02:27:24.496Z,19.58
2022-11-01T02:30:01.828Z,17.70
2022-11-01T02:33:02.295Z,22.98
2022-11-01T02:35:32.113Z,16.38
2022-11-01T02:37:58.880Z,18.00
2022-11-01T02:40:51.356Z,19.33
2022-11-01T02:43:33.443Z,22.33
2022-11-01T02:46:23.304Z,20.63
2022-11-01T02:48:51.044Z,18.40
2022-11-01T02:51:21.644Z,17.88
2022-11-01T02:53:48.620Z,29.58
2022-11-01T02:56:17.624Z,18.23
2022-11-01T02:58:46.763Z,19.05
2022-11-01T03:01:22.363Z,20.38
2022-11-01T03:03:50.911Z,19.35
2022-11-01T03:25:59.086Z,21.27
2022-11-01T03:28:36.478Z,20.60
2022-11-01T03:31:17.504Z,22.15
2022-11-01T03:33:58.012Z,20.08
2022-11-01T03:36:29.689Z,15.52
2022-11-01T03:39:06.996Z,21.77
2022-11-01T03:41:39.269Z,19.48
2022-11-01T03:44:06.982Z,17.30
2022-11-01T03:46:33.935Z,17.45
2022-11-01T03:49:00.778Z,16.63
2022-11-01T03:51:27.692Z,20.77
2022-11-01T03:53:54.768Z,21.42
2022-11-01T03:56:21.841Z,21.23
2022-11-01T03:58:49.042Z,21.70
2022-11-01T04:01:17.660Z,24.08
2022-11-01T04:03:45.185Z,25.17
2022-11-01T04:06:12.105Z,27.60
2022-11-01T04:08:38.999Z,32.45
2022-11-01T04:11:05.911Z,31.15
2022-11-01T04:13:32.783Z,31.85
2022-11-01T04:16:18.082Z,33.50
2022-11-01T04:19:03.804Z,34.20
2022-11-01T04:21:31.473Z,44.78
2022-11-01T04:23:58.381Z,36.47
2022-11-01T04:26:25.792Z,41.55
2022-11-01T04:28:58.618Z,45.95
2022-11-01T04:31:31.113Z,39.78
2022-11-01T04:33:59.777Z,42.95
2022-11-01T04:36:27.515Z,42.13
2022-11-01T04:38:56.482Z,44.35
2022-11-01T04:41:28.057Z,47.58
2022-11-01T04:43:57.064Z,47.13
2022-11-01T04:46:23.974Z,40.38
2022-11-01T04:48:50.895Z,41.90
2022-11-01T04:51:17.807Z,40.00
2022-11-01T04:53:44.596Z,39.53
2022-11-01T04:56:13.499Z,46.33
2022-11-01T04:58:44.835Z,42.15
2022-11-01T05:01:14.704Z,43.50
2022-11-01T05:03:42.131Z,46.92
2022-11-01T05:06:09.022Z,39.30
2022-11-01T05:08:35.864Z,39.53
2022-11-01T05:11:02.760Z,37.58
2022-11-01T05:13:29.637Z,32.47
2022-11-01T05:18:43.507Z,26.20
2022-11-01T05:21:10.553Z,31.25
2022-11-01T05:23:37.450Z,35.85
2022-11-01T05:26:04.370Z,49.40
2022-11-01T05:28:31.237Z,44.75
2022-11-01T05:30:58.785Z,44.05
2022-11-01T05:33:25.726Z,42.63
2022-11-01T05:35:52.784Z,45.58
2022-11-01T05:38:19.714Z,33.60
2022-11-01T05:40:46.682Z,31.50
2022-11-01T05:43:13.502Z,29.25
2022-11-01T05:45:40.397Z,31.10
2022-11-01T05:48:07.293Z,28.83
2022-11-01T05:50:34.131Z,26.80
2022-11-01T05:53:08.265Z,33.75
2022-11-01T05:58:03.184Z,27.08
2022-11-01T06:00:30.110Z,29.10
2022-11-01T06:03:00.845Z,23.95
2022-11-01T06:05:28.799Z,26.95
2022-11-01T06:07:55.856Z,26.45
2022-11-01T06:10:22.801Z,30.75
2022-11-01T06:12:49.833Z,28.65
2022-11-01T06:15:16.760Z,23.17
2022-11-01T06:17:43.560Z,27.10
2022-11-01T06:20:11.498Z,28.02
2022-11-01T06:22:38.611Z,31.27
2022-11-01T06:25:06.964Z,27.25
2022-11-01T06:27:33.884Z,27.75
2022-11-01T06:30:00.715Z,26.38
2022-11-01T06:32:27.557Z,33.85
2022-11-01T06:34:54.571Z,27.55
2022-11-01T06:37:21.452Z,26.48
2022-11-01T06:39:48.336Z,28.65
2022-11-01T06:42:15.246Z,24.95
2022-11-01T06:44:42.360Z,28.85
2022-11-01T06:47:09.335Z,27.58
2022-11-01T06:49:36.135Z,35.75
2022-11-01T06:52:03.469Z,25.88
2022-11-01T06:54:30.270Z,25.92
2022-11-01T06:56:57.191Z,21.85
2022-11-01T06:59:25.083Z,23.45
2022-11-01T07:01:55.052Z,25.02
2022-11-01T07:04:22.220Z,26.90
2022-11-01T07:06:49.333Z,26.08
2022-11-01T07:09:16.213Z,27.25
2022-11-01T07:11:43.088Z,26.10
2022-11-01T07:14:10.267Z,38.17
2022-11-01T07:16:39.033Z,22.00
2022-11-01T07:19:05.937Z,17.70
2022-11-01T07:21:33.131Z,22.58
2022-11-01T07:24:00.296Z,21.45
2022-11-01T07:26:27.154Z,18.92
2022-11-01T07:28:54.028Z,22.85
2022-11-01T07:31:21.281Z,12.45
2022-11-01T07:33:48.151Z,14.23
2022-11-01T07:36:14.984Z,11.10
2022-11-01T07:38:41.806Z,13.57
2022-11-01T07:41:09.256Z,11.73
2022-11-01T07:43:36.857Z,10.88
2022-11-01T07:46:05.688Z,8.57
2022-11-01T07:48:33.454Z,10.90
2022-11-01T07:51:00.436Z,11.95
2022-11-01T07:53:27.261Z,8.27
2022-11-01T07:55:54.108Z,8.63
2022-11-01T07:58:20.905Z,10.27
2022-11-01T08:00:48.206Z,9.82
2022-11-01T08:03:17.433Z,11.70
2022-11-01T08:05:45.150Z,11.52
2022-11-01T08:08:13.471Z,11.25
2022-11-01T08:10:41.073Z,10.68
2022-11-01T08:13:22.748Z,10.27
2022-11-01T08:15:51.028Z,8.90
2022-11-01T08:18:18.941Z,8.60
2022-11-01T08:20:45.883Z,9.95
2022-11-01T08:23:12.973Z,10.30
2022-11-01T08:25:40.598Z,6.28
2022-11-01T08:28:12.892Z,6.65
2022-11-01T08:30:41.365Z,8.38
2022-11-01T08:33:08.289Z,10.07
2022-11-01T08:35:35.912Z,8.35
2022-11-01T08:38:03.934Z,8.18
2022-11-01T08:40:33.037Z,11.55
2022-11-01T08:43:00.420Z,7.20
2022-11-01T08:45:27.934Z,8.73
2022-11-01T08:48:03.717Z,7.90
2022-11-01T08:50:31.652Z,8.10
2022-11-01T08:52:58.520Z,7.05
2022-11-01T08:55:25.518Z,5.43
2022-11-01T08:57:52.470Z,5.50
2022-11-01T09:00:19.523Z,7.50
2022-11-01T09:02:46.699Z,7.88
2022-11-01T09:05:13.609Z,6.68
2022-11-01T09:07:40.519Z,8.85
2022-11-01T09:10:07.893Z,6.10
2022-11-01T09:12:35.244Z,7.90
2022-11-01T09:15:02.802Z,8.23
2022-11-01T09:17:29.750Z,10.45
2022-11-01T09:19:56.529Z,9.52
2022-11-01T09:22:23.731Z,6.38
2022-11-01T09:24:51.659Z,8.57
2022-11-01T09:27:18.536Z,8.93
2022-11-01T09:29:48.043Z,7.82
2022-11-01T09:32:17.870Z,6.65
2022-11-01T09:34:45.340Z,6.75
2022-11-01T09:37:12.231Z,7.60
2022-11-01T09:39:39.082Z,6.85
2022-11-01T09:42:12.299Z,6.85
2022-11-01T09:44:44.118Z,7.75
2022-11-01T09:47:18.962Z,9.60
2022-11-01T09:49:50.184Z,8.35
2022-11-01T09:52:22.519Z,7.03
2022-11-01T09:54:50.163Z,9.52
2022-11-01T09:57:29.512Z,7.20
2022-11-01T10:00:16.307Z,8.40
2022-11-01T10:02:55.092Z,5.97
2022-11-01T10:05:21.985Z,8.00
2022-11-01T10:08:11.915Z,10.32
2022-11-01T10:10:54.083Z,7.43
2022-11-01T10:13:58.709Z,9.48
2022-11-01T10:16:36.569Z,6.97
2022-11-01T10:19:05.108Z,6.65
2022-11-01T10:21:43.136Z,7.45
2022-11-01T10:24:45.975Z,6.70
2022-11-01T10:27:26.645Z,7.68
2022-11-01T10:30:06.284Z,7.35
2022-11-01T10:32:43.172Z,7.18
2022-11-01T10:35:32.568Z,10.90
2022-11-01T10:38:19.114Z,8.02
2022-11-01T10:41:01.901Z,10.75
2022-11-01T10:43:28.801Z,7.03
2022-11-01T10:45:57.885Z,6.38
2022-11-01T10:48:38.465Z,6.95
2022-11-01T10:51:08.462Z,9.00
2022-11-01T10:53:44.642Z,7.07
2022-11-01T10:56:21.271Z,6.15
2022-11-01T10:59:18.077Z,8.98
2022-11-01T11:01:45.854Z,7.30
2022-11-01T11:04:16.283Z,8.93
2022-11-01T11:06:44.077Z,8.85
2022-11-01T11:09:40.719Z,6.93
2022-11-01T11:12:14.865Z,9.45
2022-11-01T11:14:42.717Z,9.80
2022-11-01T11:17:25.006Z,7.63
2022-11-01T11:19:55.670Z,8.45
2022-11-01T11:22:23.269Z,7.00
2022-11-01T11:24:52.878Z,7.05
2022-11-01T11:27:23.356Z,7.65
2022-11-01T11:29:54.073Z,8.52
2022-11-01T11:32:24.027Z,6.93
2022-11-01T11:34:59.817Z,8.63
2022-11-01T11:37:30.227Z,7.65
2022-11-01T11:40:05.998Z,9.32
2022-11-01T11:42:33.446Z,9.57
2022-11-01T11:45:30.558Z,6.25
2022-11-01T11:48:16.010Z,8.15
2022-11-01T11:50:43.767Z,8.07
2022-11-01T11:53:29.488Z,9.80
2022-11-01T11:56:03.431Z,6.93
2022-11-01T11:58:40.682Z,7.03
2022-11-01T12:01:11.685Z,9.40
2022-11-01T12:04:06.133Z,7.57
2022-11-01T12:06:41.156Z,8.80
2022-11-01T12:09:35.026Z,7.70
2022-11-01T12:12:15.194Z,11.10
2022-11-01T12:14:43.007Z,10.38
2022-11-01T12:17:48.850Z,9.45
2022-11-01T12:20:21.023Z,7.80
2022-11-01T12:23:02.891Z,9.02
2022-11-01T12:25:29.937Z,11.40
2022-11-01T12:28:01.136Z,8.13
2022-11-01T12:30:32.812Z,9.38
2022-11-01T12:33:02.942Z,10.00
2022-11-01T12:35:33.482Z,7.82
2022-11-01T12:38:12.310Z,11.18
2022-11-01T12:40:42.610Z,8.95
2022-11-01T12:43:19.180Z,9.88
2022-11-01T12:45:52.149Z,6.43
2022-11-01T12:48:50.325Z,9.18
2022-11-01T12:51:26.100Z,8.27
2022-11-01T12:54:06.088Z,9.32
2022-11-01T12:56:33.106Z,10.43
2022-11-01T12:59:00.276Z,9.27
2022-11-01T13:01:29.868Z,9.15
2022-11-01T13:04:08.998Z,9.52
2022-11-01T13:07:03.935Z,8.05
2022-11-01T13:09:33.658Z,8.27
2022-11-01T13:12:18.725Z,10.00
2022-11-01T13:15:03.479Z,8.38
2022-11-01T13:17:55.410Z,7.32
2022-11-01T13:20:40.751Z,8.82
2022-11-01T13:23:23.416Z,9.15
2022-11-01T13:26:09.046Z,8.98
2022-11-01T13:29:08.985Z,12.90
2022-11-01T13:31:53.449Z,10.95
2022-11-01T13:34:35.621Z,8.75
2022-11-01T13:37:13.619Z,10.45
2022-11-01T13:40:17.477Z,8.02
2022-11-01T13:42:57.774Z,9.13
2022-11-01T13:45:56.369Z,8.50
2022-11-01T13:48:43.732Z,10.27
2022-11-01T13:51:50.676Z,10.27
2022-11-01T13:54:23.568Z,7.97
2022-11-01T13:57:01.305Z,8.43
2022-11-01T13:59:37.166Z,10.00
2022-11-01T14:02:27.554Z,9.50
2022-11-01T14:05:03.205Z,8.32
2022-11-01T14:07:39.531Z,10.70
2022-11-01T14:10:22.709Z,10.35
2022-11-01T14:13:07.693Z,8.00
2022-11-01T14:15:39.569Z,8.93
2022-11-01T14:18:10.793Z,9.45
2022-11-01T14:20:46.425Z,10.43
2022-11-01T14:23:28.335Z,11.65
2022-11-01T14:26:18.462Z,10.70
2022-11-01T14:28:47.913Z,10.68
2022-11-01T14:31:17.624Z,10.30
2022-11-01T14:33:48.403Z,15.38
2022-11-01T14:36:18.387Z,9.32
2022-11-01T14:38:51.884Z,11.57
2022-11-01T14:41:20.606Z,9.52
2022-11-01T14:43:52.194Z,9.00
2022-11-01T14:46:25.819Z,10.90
2022-11-01T14:49:03.233Z,10.98
2022-11-01T14:51:41.806Z,8.68
2022-11-01T14:54:42.563Z,9.23
2022-11-01T14:57:28.019Z,10.70
2022-11-01T14:59:56.211Z,12.13
2022-11-01T15:02:25.697Z,10.20
2022-11-01T15:05:01.703Z,7.03
2022-11-01T15:07:32.863Z,8.95
2022-11-01T15:10:04.689Z,11.20
2022-11-01T15:27:38.874Z,9.82
2022-11-01T15:30:07.923Z,8.98
2022-11-01T15:32:35.544Z,9.38
2022-11-01T15:35:19.127Z,9.15
2022-11-01T15:37:53.278Z,12.47
2022-11-01T15:42:57.794Z,9.75
2022-11-01T15:45:33.797Z,12.10
2022-11-01T15:48:06.591Z,11.35
2022-11-01T15:50:36.706Z,11.52
2022-11-01T15:53:08.223Z,12.07
2022-11-01T15:55:40.786Z,14.10
2022-11-01T15:58:10.578Z,10.65
2022-11-01T16:00:44.611Z,11.48
2022-11-01T16:03:25.475Z,8.05
2022-11-01T16:05:59.779Z,11.50
2022-11-01T16:08:43.198Z,11.65
2022-11-01T16:11:10.328Z,10.00
2022-11-01T16:13:37.590Z,10.05
2022-11-01T16:16:16.254Z,8.90
2022-11-01T16:18:45.322Z,12.52
2022-11-01T16:21:30.878Z,12.02
2022-11-01T16:24:15.605Z,11.43
2022-11-01T16:26:54.692Z,13.80
2022-11-01T16:29:42.545Z,10.70
2022-11-01T16:32:24.097Z,15.05
2022-11-01T16:34:51.290Z,10.38
2022-11-01T16:37:21.477Z,13.63
2022-11-01T16:39:48.491Z,12.10
2022-11-01T16:42:16.205Z,12.38
2022-11-01T16:44:44.549Z,11.95
2022-11-01T16:47:13.988Z,12.48
2022-11-01T16:49:56.977Z,11.98
2022-11-01T16:52:23.738Z,13.15
2022-11-01T16:54:53.617Z,10.35
2022-11-01T16:57:29.182Z,12.82
2022-11-01T16:59:56.560Z,12.25
2022-11-01T17:02:24.090Z,11.82
2022-11-01T17:04:54.557Z,11.10
2022-11-01T17:07:21.380Z,14.65
2022-11-01T17:09:48.404Z,11.68
2022-11-01T17:12:15.287Z,12.07
2022-11-01T17:14:43.189Z,12.25
2022-11-01T17:17:17.154Z,9.15
2022-11-01T17:19:47.706Z,11.40
2022-11-01T17:22:20.889Z,13.95
2022-11-01T17:24:48.037Z,13.68
2022-11-01T17:27:15.759Z,11.55
2022-11-01T17:29:43.153Z,10.70
2022-11-01T17:32:11.562Z,14.25
2022-11-01T17:34:39.102Z,15.45
2022-11-01T17:37:06.660Z,17.83
2022-11-01T17:39:33.655Z,16.88
2022-11-01T17:42:00.604Z,18.95
2022-11-01T17:44:27.734Z,13.55
2022-11-01T17:46:54.751Z,18.00
2022-11-01T17:49:24.415Z,18.13
2022-11-01T17:51:54.879Z,12.48
2022-11-01T17:54:23.497Z,13.70
2022-11-01T17:56:51.539Z,15.93
2022-11-01T17:59:18.820Z,14.93
2022-11-01T18:01:45.805Z,21.83
2022-11-01T18:04:15.135Z,22.98
2022-11-01T18:06:42.620Z,19.65
2022-11-01T18:09:26.141Z,15.13
2022-11-01T18:12:09.954Z,22.80
2022-11-01T18:15:03.220Z,23.58
2022-11-01T18:18:03.706Z,24.35
2022-11-01T18:20:48.799Z,26.60
2022-11-01T18:23:20.250Z,23.60
2022-11-01T18:25:49.009Z,25.75
2022-11-01T18:28:25.365Z,26.17
2022-11-01T18:31:11.182Z,27.92
2022-11-01T18:33:58.569Z,23.98
2022-11-01T18:36:32.913Z,19.83
2022-11-01T18:39:21.697Z,23.20
2022-11-01T18:41:49.914Z,23.50
2022-11-01T18:44:17.213Z,24.95
2022-11-01T18:46:55.317Z,17.42
2022-11-01T18:49:25.862Z,17.98
2022-11-01T18:51:55.559Z,25.38
2022-11-01T18:54:26.054Z,22.48
2022-11-01T18:57:16.191Z,17.13
2022-11-01T18:59:44.286Z,21.15
2022-11-01T19:02:11.145Z,25.65
2022-11-01T19:04:41.147Z,21.75
2022-11-01T19:07:39.389Z,21.13
2022-11-01T19:10:24.102Z,21.58
2022-11-01T19:12:56.486Z,17.05
2022-11-01T19:15:30.639Z,24.45
2022-11-01T19:18:03.558Z,26.58
2022-11-01T19:20:34.593Z,29.23
2022-11-01T19:23:03.509Z,29.17
2022-11-01T19:25:32.853Z,28.45
2022-11-01T19:28:03.215Z,29.98
2022-11-01T19:30:32.782Z,23.17
2022-11-01T19:33:19.518Z,27.05
2022-11-01T19:35:52.247Z,27.25
2022-11-01T19:38:20.069Z,26.80
2022-11-01T19:40:49.962Z,23.95
2022-11-01T19:43:20.657Z,29.17
2022-11-01T19:45:50.910Z,21.88
2022-11-01T19:48:22.399Z,26.02
2022-11-01T19:50:49.548Z,20.80
2022-11-01T19:53:30.192Z,24.92
2022-11-01T19:56:05.752Z,19.88
2022-11-01T19:58:39.320Z,23.10
2022-11-01T20:01:16.829Z,19.63
2022-11-01T20:03:56.932Z,19.85
2022-11-01T20:06:35.482Z,22.55
2022-11-01T20:09:31.138Z,18.67
2022-11-01T20:11:58.054Z,19.38
2022-11-01T20:14:24.923Z,18.90
2022-11-01T20:16:51.989Z,17.92
2022-11-01T20:19:18.884Z,18.20
2022-11-01T20:21:45.990Z,21.70
2022-11-01T20:24:13.301Z,21.50
2022-11-01T20:26:40.233Z,17.60
2022-11-01T20:29:07.107Z,21.80
2022-11-01T20:31:34.115Z,20.23
2022-11-01T20:34:01.055Z,20.30
2022-11-01T20:36:28.695Z,14.73
2022-11-01T20:38:55.743Z,17.60
2022-11-01T20:41:22.794Z,19.45
2022-11-01T20:43:49.717Z,16.48
2022-11-01T20:46:16.784Z,20.65
2022-11-01T20:48:45.268Z,17.00
2022-11-01T20:51:13.541Z,15.60
2022-11-01T20:53:41.261Z,18.23
2022-11-01T20:56:09.142Z,16.98
2022-11-01T20:58:41.845Z,17.17
2022-11-01T21:01:17.286Z,20.63
2022-11-01T21:03:44.542Z,16.85
2022-11-01T21:06:13.722Z,18.35
2022-11-01T21:08:43.153Z,15.27
2022-11-01T21:11:18.069Z,16.00
2022-11-01T21:13:45.762Z,17.52
2022-11-01T21:16:29.569Z,16.25
2022-11-01T21:19:03.309Z,17.13
2022-11-01T21:21:45.265Z,19.20
2022-11-01T21:24:28.936Z,16.73
2022-11-01T21:27:05.579Z,15.90
2022-11-01T21:29:32.659Z,19.27
2022-11-01T21:31:59.621Z,17.00
2022-11-01T21:34:29.647Z,18.08
2022-11-01T21:36:58.601Z,14.90
2022-11-01T21:39:27.437Z,13.27
2022-11-01T21:41:54.247Z,19.67
2022-11-01T21:44:39.997Z,17.58
2022-11-01T21:47:07.918Z,14.57
2022-11-01T21:49:36.663Z,13.73
2022-11-01T21:52:05.821Z,17.50
2022-11-01T21:54:35.890Z,21.98
2022-11-01T21:57:05.201Z,17.20
2022-11-01T21:59:32.472Z,14.65
2022-11-01T22:02:01.467Z,17.75
2022-11-01T22:04:32.965Z,16.80
2022-11-01T22:07:01.843Z,21.50
2022-11-01T22:09:29.855Z,16.42
2022-11-01T22:11:56.907Z,17.95
2022-11-01T22:14:24.421Z,17.58
2022-11-01T22:16:51.816Z,17.45
2022-11-01T22:19:18.718Z,20.73
2022-11-01T22:24:18.002Z,14.80
2022-11-01T22:26:44.807Z,16.45
2022-11-01T22:29:11.659Z,16.60
2022-11-01T22:31:38.530Z,15.52
2022-11-01T22:34:05.333Z,22.85
2022-11-01T22:36:36.284Z,16.33
2022-11-01T22:39:13.062Z,18.77
2022-11-01T22:41:40.740Z,16.15
2022-11-01T22:44:14.477Z,16.15
2022-11-01T22:46:59.011Z,16.10
2022-11-01T22:49:28.271Z,15.80
2022-11-01T22:52:05.568Z,16.75
2022-11-01T22:54:40.924Z,16.58
2022-11-01T22:57:16.046Z,18.92
2022-11-01T22:59:52.221Z,16.65
2022-11-01T23:02:36.093Z,16.50
2022-11-01T23:05:05.979Z,17.45
2022-11-01T23:07:40.079Z,16.95
2022-11-01T23:10:30.918Z,18.27
2022-11-01T23:13:19.539Z,19.35
2022-11-01T23:15:46.597Z,19.52
2022-11-01T23:18:17.374Z,20.15
2022-11-01T23:20:48.360Z,18.00
2022-11-01T23:23:19.894Z,19.52
2022-11-01T23:25:47.528Z,19.13
2022-11-01T23:28:15.263Z,20.05
2022-11-01T23:30:43.028Z,18.20
2022-11-01T23:33:15.752Z,16.40
2022-11-01T23:35:50.769Z,21.55
2022-11-01T23:38:34.711Z,20.30
2022-11-01T23:41:02.601Z,18.63
2022-11-01T23:43:36.338Z,19.10
2022-11-01T23:46:04.529Z,18.92
2022-11-01T23:48:31.402Z,18.58
2022-11-01T23:50:58.366Z,19.25
2022-11-01T23:53:35.357Z,17.75
2022-11-01T23:56:05.929Z,21.35
2022-11-01T23:58:34.723Z,21.58
